Time;durP1;ratioP1;P1;durP2;ratioP2;P2;SDS_P1;SDS_P2;PMS_P1;PMS_P2;Temp;Humidity;BMP_temperature;BMP_pressure;BME280_temperature;BME280_humidity;BME280_pressure;Samples;Min_cycle;Max_cycle;Signal;HPM_P1;HPM_P2
2022/03/26 00:01:04;;;;;;;73.53;28.92;;;5.30;76.90;;;;;;4934832;29;20048;-69
2022/03/26 00:03:32;;;;;;;69.88;27.55;;;5.30;77.20;;;;;;4937943;29;20532;-70
2022/03/26 00:06:00;;;;;;;75.22;29.48;;;5.30;77.30;;;;;;4937955;29;20064;-69
2022/03/26 00:08:28;;;;;;;69.90;28.20;;;5.20;77.50;;;;;;4938213;29;20172;-69
2022/03/26 00:10:55;;;;;;;65.13;27.35;;;5.10;77.70;;;;;;4938788;29;20048;-69
2022/03/26 00:13:23;;;;;;;75.55;28.73;;;5.20;78.00;;;;;;4938630;29;20059;-69
2022/03/26 00:15:51;;;;;;;78.13;28.88;;;5.10;78.20;;;;;;4938681;29;20055;-69
2022/03/26 00:18:18;;;;;;;69.85;26.90;;;5.10;78.50;;;;;;4938429;29;20051;-69
2022/03/26 00:20:46;;;;;;;57.92;26.42;;;5.00;78.50;;;;;;4938518;29;20055;-69
2022/03/26 00:23:14;;;;;;;60.00;25.45;;;5.00;78.60;;;;;;4937532;29;20498;-69
2022/03/26 00:25:41;;;;;;;70.63;27.25;;;4.90;78.80;;;;;;4938511;29;20052;-69
2022/03/26 00:28:09;;;;;;;67.22;26.70;;;4.80;79.00;;;;;;4938445;29;20486;-70
2022/03/26 00:30:37;;;;;;;74.82;29.05;;;4.80;79.20;;;;;;4938439;29;20055;-69
2022/03/26 00:33:05;;;;;;;70.85;27.15;;;4.80;79.30;;;;;;4938189;29;20136;-69
2022/03/26 00:35:32;;;;;;;65.95;28.63;;;4.80;79.40;;;;;;4938031;29;20505;-69
2022/03/26 00:38:00;;;;;;;76.55;26.75;;;4.70;79.40;;;;;;4938194;29;20526;-69
2022/03/26 00:40:28;;;;;;;75.28;28.17;;;4.70;79.50;;;;;;4937965;29;20048;-69
2022/03/26 00:42:55;;;;;;;72.20;28.98;;;4.60;79.50;;;;;;4920893;29;20529;-69
2022/03/26 00:45:24;;;;;;;70.43;27.58;;;4.60;79.50;;;;;;4938117;29;20040;-69
2022/03/26 00:47:51;;;;;;;74.10;28.90;;;4.60;79.60;;;;;;4937173;29;20391;-69
2022/03/26 00:50:19;;;;;;;70.05;28.35;;;4.50;79.70;;;;;;4937883;29;20052;-68
2022/03/26 00:52:47;;;;;;;71.85;28.65;;;4.50;79.90;;;;;;4937893;29;20060;-68
2022/03/26 00:55:15;;;;;;;64.88;27.52;;;4.40;80.10;;;;;;4937815;29;20040;-68
2022/03/26 00:57:42;;;;;;;65.50;26.33;;;4.40;80.20;;;;;;4937113;29;20391;-68
2022/03/26 01:00:12;;;;;;;65.20;27.25;;;4.30;80.30;;;;;;4937387;29;20160;-69
2022/03/26 01:02:39;;;;;;;62.47;26.45;;;4.30;80.30;;;;;;4936309;29;20497;-68
2022/03/26 01:05:08;;;;;;;69.63;28.58;;;4.20;80.30;;;;;;4937301;29;20051;-69
2022/03/26 01:07:35;;;;;;;55.55;24.38;;;4.20;80.30;;;;;;4936768;29;20056;-68
2022/03/26 01:10:06;;;;;;;56.38;25.65;;;4.20;80.30;;;;;;4937431;29;20056;-68
2022/03/26 01:12:34;;;;;;;56.08;26.52;;;4.20;80.30;;;;;;4937169;29;20044;-68
2022/03/26 01:15:02;;;;;;;66.03;27.35;;;4.10;80.30;;;;;;4936137;29;20055;-68
2022/03/26 01:17:30;;;;;;;62.25;28.38;;;4.10;80.30;;;;;;4919117;29;20048;-69
2022/03/26 01:20:01;;;;;;;64.93;29.05;;;4.10;80.40;;;;;;4935469;29;20058;-69
2022/03/26 01:22:28;;;;;;;64.40;27.75;;;4.00;80.40;;;;;;4934569;29;20520;-68
2022/03/26 01:24:56;;;;;;;60.78;26.30;;;4.00;80.50;;;;;;4935344;29;20047;-68
2022/03/26 01:27:24;;;;;;;81.20;30.40;;;4.00;80.50;;;;;;4918155;29;20078;-69
2022/03/26 01:29:51;;;;;;;70.00;29.90;;;3.90;80.50;;;;;;4918625;29;20048;-68
2022/03/26 01:32:19;;;;;;;80.22;29.50;;;3.90;80.70;;;;;;4914970;29;20040;-68
2022/03/26 01:34:46;;;;;;;82.55;29.98;;;3.80;80.80;;;;;;4914668;29;20048;-68
2022/03/26 01:37:16;;;;;;;72.85;28.73;;;3.80;80.90;;;;;;4900558;29;20055;-68
2022/03/26 01:39:44;;;;;;;65.47;28.75;;;3.80;81.00;;;;;;4918081;29;20499;-68
2022/03/26 01:42:11;;;;;;;63.55;27.70;;;3.70;81.10;;;;;;4917961;29;20048;-69
2022/03/26 01:44:39;;;;;;;54.70;27.10;;;3.70;81.20;;;;;;4917661;29;20044;-68
2022/03/26 01:47:07;;;;;;;66.13;27.33;;;3.70;81.20;;;;;;4916983;29;20048;-68
2022/03/26 01:53:06;;;;;;;72.18;29.55;;;3.60;81.40;;;;;;4832466;23;20056;-68
2022/03/26 01:55:34;;;;;;;89.60;31.70;;;3.60;81.40;;;;;;4936773;29;20044;-68
2022/03/26 01:58:02;;;;;;;75.28;30.45;;;3.60;81.40;;;;;;4936838;29;20062;-69
2022/03/26 02:00:30;;;;;;;82.90;32.65;;;3.60;81.60;;;;;;4936713;29;20062;-69
2022/03/26 02:02:58;;;;;;;81.80;29.38;;;3.50;81.70;;;;;;4936744;29;20055;-69
2022/03/26 02:05:26;;;;;;;75.90;30.55;;;3.50;81.90;;;;;;4935318;29;20055;-69
2022/03/26 02:07:54;;;;;;;73.50;31.02;;;3.50;82.00;;;;;;4936656;29;20071;-69
2022/03/26 02:10:22;;;;;;;72.15;29.50;;;3.50;82.20;;;;;;4936620;29;20067;-69
2022/03/26 02:12:50;;;;;;;67.10;29.05;;;3.50;82.20;;;;;;4936568;29;20055;-69
2022/03/26 02:15:17;;;;;;;79.05;31.33;;;3.40;82.30;;;;;;4936441;29;20067;-69
2022/03/26 02:17:45;;;;;;;76.40;30.30;;;3.40;82.30;;;;;;4936387;29;20059;-69
2022/03/26 02:20:14;;;;;;;68.72;31.15;;;3.30;82.40;;;;;;4936299;29;20493;-68
2022/03/26 02:22:42;;;;;;;64.63;29.63;;;3.30;82.50;;;;;;4936330;29;20497;-68
2022/03/26 02:25:10;;;;;;;65.25;28.02;;;3.30;82.60;;;;;;4935424;29;20048;-68
2022/03/26 02:27:38;;;;;;;67.55;29.30;;;3.20;82.70;;;;;;4936293;29;20059;-68
2022/03/26 02:30:06;;;;;;;65.63;30.13;;;3.20;82.70;;;;;;4936193;29;20059;-68
2022/03/26 02:32:34;;;;;;;69.57;29.13;;;3.20;82.80;;;;;;4935085;29;20066;-68
2022/03/26 02:35:01;;;;;;;70.93;31.50;;;3.10;82.80;;;;;;4936000;29;20044;-68
2022/03/26 02:37:31;;;;;;;67.55;30.02;;;3.20;82.80;;;;;;4936221;29;20319;-68
2022/03/26 02:40:00;;;;;;;73.28;30.15;;;3.20;82.90;;;;;;4934399;29;20500;-68
2022/03/26 02:42:28;;;;;;;86.93;34.58;;;3.20;83.00;;;;;;4935782;29;20051;-68
2022/03/26 02:44:55;;;;;;;77.63;32.75;;;3.20;83.10;;;;;;4935940;29;20548;-68
2022/03/26 02:47:23;;;;;;;73.40;28.67;;;3.20;83.10;;;;;;4935913;29;20048;-68
2022/03/26 02:49:51;;;;;;;62.85;26.98;;;3.20;83.20;;;;;;4935235;29;20058;-68
2022/03/26 02:52:19;;;;;;;64.80;27.77;;;3.20;83.20;;;;;;4935354;29;20044;-68
2022/03/26 02:54:46;;;;;;;59.08;27.13;;;3.20;83.10;;;;;;4935667;29;20048;-68
2022/03/26 02:57:14;;;;;;;56.70;26.15;;;3.10;83.10;;;;;;4935577;29;20051;-68
2022/03/26 02:59:41;;;;;;;53.55;27.30;;;3.10;83.20;;;;;;4935185;29;20511;-67
2022/03/26 03:02:09;;;;;;;60.42;27.02;;;3.10;83.30;;;;;;4934224;29;20496;-68
2022/03/26 03:04:38;;;;;;;66.05;29.05;;;3.10;83.40;;;;;;4935290;29;20056;-68
2022/03/26 03:07:06;;;;;;;62.55;27.50;;;3.10;83.40;;;;;;4935440;29;20525;-68
2022/03/26 03:09:34;;;;;;;65.65;28.10;;;3.20;83.50;;;;;;4933914;29;20371;-67
2022/03/26 03:12:01;;;;;;;65.63;28.42;;;3.20;83.50;;;;;;4931805;29;20054;-68
2022/03/26 03:14:29;;;;;;;67.88;28.83;;;3.20;83.50;;;;;;4931904;29;20507;-68
2022/03/26 03:16:57;;;;;;;64.57;29.13;;;3.20;83.50;;;;;;4932239;29;20052;-68
2022/03/26 03:19:25;;;;;;;57.72;27.95;;;3.20;83.50;;;;;;4933253;29;20059;-68
2022/03/26 03:21:53;;;;;;;74.55;29.98;;;3.20;83.50;;;;;;4933239;29;20405;-67
2022/03/26 03:24:21;;;;;;;72.43;30.23;;;3.20;83.70;;;;;;4933090;29;20054;-68
2022/03/26 03:26:49;;;;;;;70.20;29.13;;;3.30;83.80;;;;;;4935266;29;20047;-68
2022/03/26 03:29:17;;;;;;;70.95;29.52;;;3.20;83.70;;;;;;4935171;29;20043;-68
2022/03/26 03:31:47;;;;;;;80.72;31.42;;;3.10;83.70;;;;;;4935065;29;20043;-68
2022/03/26 03:34:15;;;;;;;83.10;30.17;;;3.10;83.90;;;;;;4934916;29;20512;-68
2022/03/26 03:36:43;;;;;;;72.13;29.17;;;3.00;84.00;;;;;;4933675;29;20048;-68
2022/03/26 03:39:10;;;;;;;66.57;27.30;;;3.00;84.00;;;;;;4933883;29;20063;-68
2022/03/26 03:41:38;;;;;;;77.97;27.50;;;3.00;84.10;;;;;;4934920;29;20047;-68
2022/03/26 03:44:07;;;;;;;74.43;27.05;;;2.90;84.20;;;;;;4934977;29;20067;-68
2022/03/26 03:46:34;;;;;;;71.28;27.73;;;2.80;84.20;;;;;;4933848;29;20444;-68
2022/03/26 03:49:03;;;;;;;71.63;27.58;;;2.80;84.20;;;;;;4933891;29;20179;-68
2022/03/26 03:51:31;;;;;;;82.88;31.15;;;2.70;84.30;;;;;;4933646;29;20515;-68
2022/03/26 03:53:58;;;;;;;74.07;28.33;;;2.70;84.30;;;;;;4934680;29;20233;-68
2022/03/26 03:56:26;;;;;;;73.07;27.52;;;2.60;84.40;;;;;;4933589;29;20052;-68
2022/03/26 03:58:53;;;;;;;66.95;28.35;;;2.60;84.50;;;;;;4934927;29;20055;-69
2022/03/26 04:01:21;;;;;;;69.55;27.13;;;2.50;84.50;;;;;;4934798;29;20055;-68
2022/03/26 04:03:49;;;;;;;64.30;27.13;;;2.50;84.60;;;;;;4934314;29;20048;-68
2022/03/26 04:06:17;;;;;;;60.17;27.45;;;2.50;84.60;;;;;;4934734;29;20047;-68
2022/03/26 04:08:44;;;;;;;70.55;27.40;;;2.50;84.60;;;;;;4934852;29;20044;-68
2022/03/26 04:11:12;;;;;;;61.90;27.60;;;2.40;84.50;;;;;;4948905;29;20497;-68
2022/03/26 04:13:40;;;;;;;62.15;27.92;;;2.40;84.50;;;;;;4934764;29;20371;-68
2022/03/26 04:16:07;;;;;;;67.25;28.52;;;2.40;84.50;;;;;;4934551;29;20112;-68
2022/03/26 04:18:35;;;;;;;76.53;29.65;;;2.40;84.50;;;;;;4934649;29;20401;-68
2022/03/26 04:21:03;;;;;;;77.00;30.17;;;2.40;84.50;;;;;;4934820;29;20048;-68
2022/03/26 04:23:30;;;;;;;74.95;29.55;;;2.40;84.40;;;;;;4933223;29;20055;-68
2022/03/26 04:25:58;;;;;;;87.25;31.05;;;2.40;84.50;;;;;;4933335;29;20051;-68
2022/03/26 04:28:26;;;;;;;74.50;30.60;;;2.30;84.60;;;;;;4934671;29;20067;-67
2022/03/26 04:30:54;;;;;;;72.28;30.42;;;2.40;84.70;;;;;;4934402;29;20485;-68
2022/03/26 04:33:22;;;;;;;95.25;31.95;;;2.40;84.70;;;;;;4934564;29;20059;-69
2022/03/26 04:35:49;;;;;;;83.07;30.33;;;2.40;84.80;;;;;;4933577;29;20053;-68
2022/03/26 04:38:17;;;;;;;82.93;30.80;;;2.50;84.90;;;;;;4933910;29;20059;-68
2022/03/26 04:40:46;;;;;;;84.97;30.88;;;2.60;84.90;;;;;;4934327;29;20048;-68
2022/03/26 04:43:13;;;;;;;70.75;28.15;;;2.50;84.90;;;;;;4934465;29;20051;-68
2022/03/26 04:45:41;;;;;;;74.55;28.42;;;2.50;84.90;;;;;;4934336;29;20055;-68
2022/03/26 04:48:08;;;;;;;71.55;29.15;;;2.60;84.90;;;;;;4936083;29;20047;-68
2022/03/26 04:50:36;;;;;;;72.53;29.17;;;2.50;84.90;;;;;;4938048;29;20401;-68
2022/03/26 04:53:04;;;;;;;79.38;30.15;;;2.50;85.00;;;;;;4936029;29;20060;-68
2022/03/26 04:55:31;;;;;;;89.10;30.70;;;2.60;85.10;;;;;;4936139;29;20063;-68
2022/03/26 04:57:59;;;;;;;79.40;29.45;;;2.60;85.10;;;;;;4943699;29;20531;-69
2022/03/26 05:00:27;;;;;;;77.88;30.23;;;2.60;85.10;;;;;;4954961;29;20043;-68
2022/03/26 05:02:55;;;;;;;77.93;29.13;;;2.60;85.20;;;;;;4955115;29;20199;-68
2022/03/26 05:05:23;;;;;;;74.10;28.67;;;2.60;85.30;;;;;;4954923;29;20051;-67
2022/03/26 05:07:52;;;;;;;73.03;27.60;;;2.60;85.20;;;;;;4955082;29;20301;-68
2022/03/26 05:10:22;;;;;;;64.95;27.67;;;2.70;85.30;;;;;;4955120;29;20051;-67
2022/03/26 05:12:51;;;;;;;61.45;26.50;;;2.60;85.30;;;;;;4956275;29;20043;-68
2022/03/26 05:15:21;;;;;;;67.07;28.10;;;2.60;85.30;;;;;;4956679;29;20062;-68
2022/03/26 05:17:53;;;;;;;68.47;28.67;;;2.50;85.30;;;;;;4956582;28;20511;-67
2022/03/26 05:20:21;;;;;;;66.22;27.55;;;2.50;85.30;;;;;;4956744;29;20047;-67
2022/03/26 05:22:49;;;;;;;69.97;27.42;;;2.40;85.30;;;;;;4955396;29;20408;-68
2022/03/26 05:25:18;;;;;;;65.80;26.35;;;2.40;85.40;;;;;;4956647;29;20563;-68
2022/03/26 05:27:47;;;;;;;56.25;25.75;;;2.30;85.50;;;;;;4954878;29;20493;-68
2022/03/26 05:30:16;;;;;;;62.28;25.27;;;2.30;85.50;;;;;;4956455;29;20050;-68
2022/03/26 05:32:44;;;;;;;61.97;25.98;;;2.20;85.50;;;;;;4956628;29;20054;-68
2022/03/26 05:35:16;;;;;;;59.75;25.95;;;2.20;85.60;;;;;;4956496;29;20047;-68
2022/03/26 05:37:45;;;;;;;58.70;26.73;;;2.10;85.70;;;;;;4955268;29;20519;-68
2022/03/26 05:40:17;;;;;;;65.45;26.35;;;2.10;85.60;;;;;;4956417;29;20059;-68
2022/03/26 05:42:46;;;;;;;61.23;25.93;;;2.10;85.60;;;;;;4956405;29;20054;-68
2022/03/26 05:45:15;;;;;;;60.97;25.02;;;2.00;85.60;;;;;;4956290;29;20489;-68
2022/03/26 05:47:42;;;;;;;61.92;24.83;;;2.00;85.70;;;;;;4955108;29;20047;-68
2022/03/26 05:50:12;;;;;;;60.47;24.85;;;1.90;85.70;;;;;;4956202;29;20055;-67
2022/03/26 05:52:40;;;;;;;62.13;24.13;;;1.90;85.70;;;;;;4956019;29;20167;-68
2022/03/26 05:55:08;;;;;;;65.68;26.20;;;1.90;85.70;;;;;;4956239;29;20047;-69
2022/03/26 05:57:36;;;;;;;72.72;26.95;;;1.90;85.70;;;;;;4955953;29;20058;-68
2022/03/26 06:00:05;;;;;;;71.32;26.42;;;1.90;85.70;;;;;;4956131;28;20047;-69
2022/03/26 06:02:34;;;;;;;78.95;26.85;;;1.90;85.70;;;;;;4955911;29;20047;-70
2022/03/26 06:05:05;;;;;;;86.40;29.48;;;1.90;85.70;;;;;;4955912;29;20054;-68
2022/03/26 06:07:32;;;;;;;82.15;28.90;;;1.90;85.70;;;;;;4955836;28;20055;-68
2022/03/26 06:10:00;;;;;;;82.55;28.75;;;1.90;85.80;;;;;;4955916;29;20055;-68
2022/03/26 06:12:28;;;;;;;82.82;29.38;;;2.00;85.80;;;;;;4955673;29;20445;-68
2022/03/26 06:14:55;;;;;;;77.95;28.23;;;2.00;85.80;;;;;;4955208;29;20043;-68
2022/03/26 06:17:23;;;;;;;80.38;28.42;;;2.00;85.80;;;;;;4954619;29;20369;-68
2022/03/26 06:19:51;;;;;;;88.18;29.30;;;2.00;85.80;;;;;;4955665;29;20055;-68
2022/03/26 06:22:19;;;;;;;82.03;29.98;;;2.00;85.90;;;;;;4955530;29;20047;-68
2022/03/26 06:24:46;;;;;;;73.18;28.00;;;2.00;85.90;;;;;;4955555;29;20055;-68
2022/03/26 06:27:15;;;;;;;77.32;28.27;;;2.00;85.90;;;;;;4953411;29;20058;-68
2022/03/26 06:29:43;;;;;;;69.97;29.63;;;2.00;85.90;;;;;;4955329;29;20152;-68
2022/03/26 06:32:10;;;;;;;74.88;28.20;;;2.10;86.00;;;;;;4955466;29;20042;-68
2022/03/26 06:34:38;;;;;;;66.22;28.17;;;2.10;86.00;;;;;;4954160;29;20062;-68
2022/03/26 06:37:05;;;;;;;68.32;27.50;;;2.10;86.00;;;;;;4953464;29;20043;-69
2022/03/26 06:39:33;;;;;;;69.60;27.75;;;2.20;86.00;;;;;;4953188;29;20054;-68
2022/03/26 06:42:01;;;;;;;60.90;26.42;;;2.20;86.00;;;;;;4951857;29;20071;-68
2022/03/26 06:44:28;;;;;;;62.50;26.95;;;2.20;85.90;;;;;;4953093;29;20055;-68
2022/03/26 06:46:56;;;;;;;67.05;27.88;;;2.20;85.90;;;;;;4936120;29;20047;-68
2022/03/26 06:49:24;;;;;;;63.05;28.58;;;2.30;85.90;;;;;;4953312;29;20378;-69
2022/03/26 06:51:51;;;;;;;63.92;28.08;;;2.40;85.90;;;;;;4953500;29;20047;-68
2022/03/26 06:54:19;;;;;;;66.43;26.95;;;2.40;85.90;;;;;;4954679;29;20058;-68
2022/03/26 06:56:46;;;;;;;71.88;29.20;;;2.50;85.80;;;;;;4953467;29;20051;-68
2022/03/26 06:59:18;;;;;;;71.45;27.42;;;2.60;85.80;;;;;;4953649;29;20051;-68
2022/03/26 07:01:45;;;;;;;71.75;27.52;;;2.70;85.70;;;;;;4953087;29;20409;-68
2022/03/26 07:04:17;;;;;;;68.57;27.23;;;2.80;85.60;;;;;;4940896;29;20055;-70
2022/03/26 07:06:45;;;;;;;75.07;27.52;;;2.80;85.60;;;;;;4935593;29;20048;-69
2022/03/26 07:09:13;;;;;;;61.58;26.48;;;3.00;85.50;;;;;;4935509;29;20400;-69
2022/03/26 07:11:41;;;;;;;66.75;27.42;;;3.00;85.40;;;;;;4933811;29;20048;-69
2022/03/26 07:14:08;;;;;;;60.50;26.25;;;3.20;85.30;;;;;;4935496;29;20528;-69
2022/03/26 07:16:36;;;;;;;67.07;28.10;;;3.30;85.20;;;;;;4935422;29;20044;-69
2022/03/26 07:19:04;;;;;;;59.30;26.23;;;3.30;85.10;;;;;;4933498;29;20059;-69
2022/03/26 07:21:32;;;;;;;57.65;26.52;;;3.50;85.00;;;;;;4950059;29;20051;-69
2022/03/26 07:23:59;;;;;;;53.10;22.95;;;3.60;84.90;;;;;;4949883;29;20054;-69
2022/03/26 07:26:27;;;;;;;63.58;27.08;;;3.70;84.90;;;;;;4941373;29;20044;-68
2022/03/26 07:28:55;;;;;;;65.32;26.90;;;3.70;84.80;;;;;;4951314;29;20420;-69
2022/03/26 07:31:24;;;;;;;61.05;27.10;;;3.80;84.70;;;;;;4934943;29;20493;-69
2022/03/26 07:33:52;;;;;;;61.85;25.52;;;3.80;84.70;;;;;;4951091;29;20063;-69
2022/03/26 07:36:19;;;;;;;61.58;26.63;;;3.80;84.60;;;;;;4951996;29;20498;-69
2022/03/26 07:38:47;;;;;;;60.05;27.95;;;4.00;84.60;;;;;;4951390;29;20048;-69
2022/03/26 07:41:15;;;;;;;55.90;25.60;;;4.20;84.60;;;;;;4934633;29;20528;-70
2022/03/26 07:43:43;;;;;;;54.90;26.02;;;4.30;84.50;;;;;;4934964;29;20055;-69
2022/03/26 07:46:10;;;;;;;65.25;25.80;;;4.60;84.40;;;;;;4949723;29;20056;-69
2022/03/26 07:48:38;;;;;;;61.95;25.75;;;4.80;84.20;;;;;;4935096;29;20044;-70
2022/03/26 07:51:06;;;;;;;60.50;26.38;;;5.00;84.10;;;;;;4934857;29;20051;-69
2022/03/26 07:53:33;;;;;;;59.97;25.30;;;5.30;83.80;;;;;;4932368;29;20055;-69
2022/03/26 07:56:01;;;;;;;47.90;24.75;;;5.50;83.50;;;;;;4947785;29;20055;-69
2022/03/26 07:58:28;;;;;;;59.35;25.02;;;5.70;83.30;;;;;;4947680;29;20047;-69
2022/03/26 08:00:56;;;;;;;53.22;24.83;;;5.80;83.00;;;;;;4932989;29;20048;-69
2022/03/26 08:03:24;;;;;;;60.33;25.10;;;6.10;82.70;;;;;;4939938;29;20043;-69
2022/03/26 08:05:52;;;;;;;58.97;25.65;;;6.30;82.50;;;;;;4940915;29;20058;-69
2022/03/26 08:08:20;;;;;;;58.00;24.25;;;6.40;82.30;;;;;;4940703;29;20256;-69
2022/03/26 08:10:47;;;;;;;57.83;24.02;;;6.70;82.00;;;;;;4940902;29;20048;-69
2022/03/26 08:13:15;;;;;;;53.40;23.17;;;6.90;81.70;;;;;;4941217;29;20043;-69
2022/03/26 08:15:43;;;;;;;48.03;24.15;;;7.20;81.30;;;;;;4941953;29;20060;-69
2022/03/26 08:18:10;;;;;;;46.55;22.90;;;7.40;80.90;;;;;;4940585;29;20048;-69
2022/03/26 08:20:38;;;;;;;48.00;22.40;;;7.70;80.50;;;;;;4940659;29;20035;-69
2022/03/26 08:23:06;;;;;;;45.83;20.98;;;7.90;80.00;;;;;;4944079;29;20400;-71
2022/03/26 08:28:20;;;;;;;40.05;19.75;;;8.40;78.90;;;;;;4928548;29;20272;-70
2022/03/26 08:30:47;;;;;;;44.00;20.58;;;8.60;78.20;;;;;;4946236;29;20054;-69
2022/03/26 08:33:16;;;;;;;42.70;20.25;;;8.70;77.60;;;;;;4946701;29;20044;-69
2022/03/26 08:35:44;;;;;;;45.40;19.55;;;8.80;77.30;;;;;;4948190;29;20098;-69
2022/03/26 08:38:12;;;;;;;38.58;20.27;;;8.80;77.10;;;;;;4946254;29;20052;-70
2022/03/26 08:40:40;;;;;;;42.88;20.42;;;8.90;76.90;;;;;;4952877;29;20043;-70
2022/03/26 08:43:08;;;;;;;40.13;20.23;;;9.00;76.70;;;;;;4945706;29;20047;-69
2022/03/26 08:45:36;;;;;;;39.53;19.67;;;9.10;76.60;;;;;;4962850;28;20433;-69
2022/03/26 08:48:04;;;;;;;37.40;18.05;;;9.10;76.30;;;;;;4945557;29;20055;-70
2022/03/26 08:50:33;;;;;;;39.13;18.45;;;9.20;75.90;;;;;;4946890;29;20051;-70
2022/03/26 08:53:01;;;;;;;39.92;18.42;;;9.30;75.30;;;;;;4946710;29;20048;-69
2022/03/26 08:55:28;;;;;;;38.40;17.60;;;9.50;74.60;;;;;;4945885;29;20048;-69
2022/03/26 08:57:57;;;;;;;38.88;17.50;;;9.60;73.90;;;;;;4946339;29;20050;-70
2022/03/26 09:00:26;;;;;;;42.83;18.45;;;9.70;73.20;;;;;;4947504;29;20051;-70
2022/03/26 09:02:55;;;;;;;44.10;17.63;;;9.80;72.30;;;;;;4946285;29;20200;-69
2022/03/26 09:05:23;;;;;;;48.20;18.90;;;10.10;71.50;;;;;;4944236;28;20067;-70
2022/03/26 09:07:51;;;;;;;45.88;17.92;;;10.20;70.70;;;;;;4946549;29;20043;-70
2022/03/26 09:10:19;;;;;;;40.03;18.20;;;10.40;69.50;;;;;;4946508;29;20516;-70
2022/03/26 09:12:47;;;;;;;44.20;18.50;;;10.60;68.80;;;;;;4946962;29;20058;-69
2022/03/26 09:15:15;;;;;;;44.85;19.08;;;10.80;68.30;;;;;;4947052;29;20039;-69
2022/03/26 09:17:43;;;;;;;36.88;17.92;;;10.90;67.70;;;;;;4945977;29;20055;-69
2022/03/26 09:20:10;;;;;;;50.78;19.42;;;11.20;67.10;;;;;;4945118;29;20043;-69
2022/03/26 09:22:38;;;;;;;41.40;17.95;;;11.30;65.90;;;;;;4945075;29;20059;-69
2022/03/26 09:25:06;;;;;;;40.25;17.70;;;11.50;65.30;;;;;;4945435;29;20616;-69
2022/03/26 09:27:34;;;;;;;38.13;18.38;;;11.70;64.80;;;;;;4945406;29;20047;-69
2022/03/26 09:30:03;;;;;;;41.28;18.88;;;11.80;64.40;;;;;;4944380;29;20066;-69
2022/03/26 09:32:35;;;;;;;39.80;18.48;;;11.90;63.70;;;;;;4943455;29;20416;-69
2022/03/26 09:35:04;;;;;;;42.90;18.30;;;12.10;63.40;;;;;;4945123;28;20043;-69
2022/03/26 09:37:31;;;;;;;38.80;18.20;;;12.30;62.80;;;;;;4953218;29;20066;-69
2022/03/26 09:39:59;;;;;;;43.33;18.70;;;12.30;62.40;;;;;;4944822;29;20390;-69
2022/03/26 09:42:27;;;;;;;35.20;16.98;;;12.50;61.30;;;;;;4940499;29;20044;-68
2022/03/26 09:44:56;;;;;;;38.90;17.75;;;12.70;60.30;;;;;;4951371;29;20070;-68
2022/03/26 09:47:24;;;;;;;39.08;18.58;;;12.90;59.00;;;;;;4934465;29;20048;-69
2022/03/26 09:49:52;;;;;;;37.30;18.00;;;13.00;58.80;;;;;;4935961;29;20370;-68
2022/03/26 09:52:20;;;;;;;44.42;19.48;;;13.30;58.00;;;;;;4936616;29;20389;-68
2022/03/26 09:54:47;;;;;;;39.33;18.45;;;13.30;57.50;;;;;;4936530;29;20063;-68
2022/03/26 09:57:15;;;;;;;40.90;17.45;;;13.50;57.00;;;;;;4936826;29;20044;-68
2022/03/26 09:59:43;;;;;;;35.83;17.73;;;13.70;56.80;;;;;;4936716;29;20047;-68
2022/03/26 10:02:10;;;;;;;34.67;16.33;;;13.80;56.30;;;;;;4935597;29;20054;-68
2022/03/26 10:04:40;;;;;;;38.15;16.95;;;14.00;55.50;;;;;;4934106;29;20055;-68
2022/03/26 10:07:08;;;;;;;33.92;17.45;;;14.10;55.10;;;;;;4934704;29;20044;-68
2022/03/26 10:09:41;;;;;;;35.22;16.75;;;14.30;54.70;;;;;;4934601;29;20516;-68
2022/03/26 10:12:17;;;;;;;31.42;16.65;;;14.40;54.10;;;;;;4934365;29;20051;-68
2022/03/26 10:14:51;;;;;;;39.10;16.65;;;14.60;53.60;;;;;;4934298;29;20060;-68
2022/03/26 10:17:38;;;;;;;31.27;16.30;;;14.80;53.20;;;;;;4934653;29;20052;-69
2022/03/26 10:20:10;;;;;;;38.30;16.50;;;15.00;52.30;;;;;;4935227;29;20048;-69
2022/03/26 10:22:43;;;;;;;30.83;15.18;;;15.10;51.40;;;;;;4936415;29;20059;-70
2022/03/26 10:25:15;;;;;;;;;;;15.30;51.10;;;;;;4936644;29;20055;-69
2022/03/26 10:27:56;;;;;;;27.33;14.10;;;15.30;50.20;;;;;;4936379;29;19922;-70
2022/03/26 10:33:24;;;;;;;32.92;16.02;;;15.60;50.20;;;;;;4935485;29;20047;-70
2022/03/26 10:35:59;;;;;;;35.05;16.65;;;15.70;49.50;;;;;;4936218;29;20062;-70
2022/03/26 10:38:38;;;;;;;36.67;16.85;;;15.80;49.30;;;;;;4936211;29;20059;-69
2022/03/26 10:41:07;;;;;;;38.70;17.58;;;16.00;49.30;;;;;;4936049;29;20051;-68
2022/03/26 10:43:41;;;;;;;32.92;16.35;;;16.20;49.30;;;;;;4935469;29;20505;-68
2022/03/26 10:46:09;;;;;;;36.38;16.20;;;16.40;48.50;;;;;;4935284;29;20052;-69
2022/03/26 10:48:38;;;;;;;32.17;16.02;;;16.70;47.40;;;;;;4935856;29;20516;-69
2022/03/26 10:51:07;;;;;;;34.25;15.93;;;17.00;45.80;;;;;;4935759;29;20056;-69
2022/03/26 10:53:39;;;;;;;28.80;15.23;;;17.20;44.30;;;;;;4935471;29;20051;-68
2022/03/26 10:56:11;;;;;;;38.30;16.17;;;17.30;44.00;;;;;;4935938;29;20075;-69
2022/03/26 10:58:40;;;;;;;36.90;17.13;;;17.50;43.60;;;;;;4935873;29;20059;-69
2022/03/26 11:01:08;;;;;;;36.40;15.98;;;17.70;42.80;;;;;;4935665;29;20059;-69
2022/03/26 11:03:36;;;;;;;29.38;12.95;;;17.80;42.40;;;;;;4935572;29;20040;-69
2022/03/26 11:06:09;;;;;;;35.90;14.82;;;18.00;41.60;;;;;;4950270;29;20510;-68
2022/03/26 11:08:38;;;;;;;35.80;14.82;;;18.10;41.80;;;;;;4935711;29;20048;-68
2022/03/26 11:11:10;;;;;;;25.23;12.60;;;18.30;42.40;;;;;;4935589;29;20431;-68
2022/03/26 11:13:46;;;;;;;26.63;13.07;;;18.30;41.70;;;;;;4935704;29;20043;-69
2022/03/26 11:16:39;;;;;;;26.88;13.57;;;18.40;41.90;;;;;;4935636;29;20501;-68
2022/03/26 11:19:34;;;;;;;25.98;12.88;;;18.50;41.10;;;;;;4932985;29;20058;-69
2022/03/26 11:22:19;;;;;;;25.05;11.93;;;18.50;40.60;;;;;;4935557;29;20061;-68
2022/03/26 11:25:02;;;;;;;25.35;12.25;;;18.50;39.90;;;;;;4935283;29;20520;-68
2022/03/26 11:27:54;;;;;;;20.65;11.43;;;18.50;39.90;;;;;;4934215;29;20527;-68
2022/03/26 11:30:52;;;;;;;29.30;12.15;;;18.50;40.00;;;;;;4935405;29;20508;-68
2022/03/26 11:33:20;;;;;;;27.67;12.30;;;18.50;40.00;;;;;;4934168;29;20059;-68
2022/03/26 11:35:59;;;;;;;24.70;12.60;;;18.40;40.50;;;;;;4933294;29;20044;-68
2022/03/26 11:38:29;;;;;;;24.65;12.25;;;18.60;40.40;;;;;;4933312;29;20052;-69
2022/03/26 11:40:57;;;;;;;19.13;10.07;;;18.80;40.60;;;;;;4933417;29;20490;-69
2022/03/26 11:43:43;;;;;;;19.80;9.95;;;19.10;40.10;;;;;;4933396;29;20551;-69
2022/03/26 11:52:17;;;;;;;25.08;10.88;;;19.60;38.20;;;;;;4952043;29;20385;-70
2022/03/26 11:54:45;;;;;;;23.65;11.48;;;19.70;38.50;;;;;;4951268;29;20501;-68
2022/03/26 11:57:18;;;;;;;22.17;11.07;;;19.80;38.40;;;;;;4951110;29;20397;-68
2022/03/26 11:59:46;;;;;;;;;;;20.00;37.80;;;;;;4952423;29;20107;-68
2022/03/26 12:02:24;;;;;;;17.90;10.50;;;20.10;37.50;;;;;;4952246;29;20139;-69
2022/03/26 12:06:35;;;;;;;18.05;10.60;;;20.30;37.80;;;;;;4950881;29;20047;-69
2022/03/26 12:08:08;;;;;;;21.40;10.82;;;20.40;37.20;;;;;;4951866;29;20039;-69
2022/03/26 12:10:36;;;;;;;25.55;11.77;;;20.70;36.70;;;;;;4954089;29;20062;-68
2022/03/26 12:13:04;;;;;;;23.13;11.48;;;20.80;36.50;;;;;;4954081;29;20043;-68
2022/03/26 12:15:34;;;;;;;20.35;11.00;;;20.90;36.30;;;;;;4953804;29;20056;-69
2022/03/26 12:18:10;;;;;;;21.73;11.57;;;21.10;35.90;;;;;;4953920;29;20055;-69
2022/03/26 12:20:38;;;;;;;21.33;11.52;;;21.30;35.80;;;;;;4953876;29;20047;-68
2022/03/26 12:23:14;;;;;;;24.20;11.50;;;21.40;35.30;;;;;;4953909;29;20054;-69
2022/03/26 12:25:51;;;;;;;22.98;12.30;;;21.50;34.60;;;;;;4952644;29;20043;-68
2022/03/26 12:28:25;;;;;;;23.90;12.13;;;21.60;34.80;;;;;;4952648;29;20405;-69
2022/03/26 12:30:57;;;;;;;20.00;12.00;;;21.80;35.00;;;;;;4952638;29;20047;-68
2022/03/26 12:33:26;;;;;;;19.98;13.43;;;22.00;35.10;;;;;;4953909;29;20048;-69
2022/03/26 12:35:55;;;;;;;21.35;12.85;;;22.50;35.10;;;;;;4953852;29;20136;-69
2022/03/26 12:38:27;;;;;;;17.77;12.27;;;22.90;34.50;;;;;;4953854;29;20055;-69
2022/03/26 12:41:03;;;;;;;19.70;10.73;;;23.30;33.20;;;;;;4951945;29;20527;-69
2022/03/26 12:43:31;;;;;;;19.17;10.55;;;23.30;32.70;;;;;;4953820;29;20058;-69
2022/03/26 12:46:00;;;;;;;17.60;10.80;;;23.10;33.30;;;;;;4952750;28;20413;-69
2022/03/26 12:48:29;;;;;;;18.70;9.93;;;23.30;33.20;;;;;;4953371;28;20055;-69
2022/03/26 12:51:05;;;;;;;14.45;9.75;;;23.70;32.70;;;;;;4953603;29;20043;-69
2022/03/26 12:53:38;;;;;;;15.50;9.63;;;23.80;31.30;;;;;;4953231;29;20062;-69
2022/03/26 12:56:11;;;;;;;15.80;9.68;;;23.90;31.40;;;;;;4953740;29;20417;-69
2022/03/26 12:58:57;;;;;;;;;;;24.30;31.10;;;;;;4953981;29;20047;-68
2022/03/26 13:01:26;;;;;;;16.35;10.13;;;24.30;30.60;;;;;;4952531;29;19922;-69